createdAt,value
2018-03-27T00:00:20.091Z,26.00
2018-03-27T00:01:20.100Z,25.90
2018-03-27T00:02:20.122Z,26.10
2018-03-27T00:03:20.144Z,25.10
2018-03-27T00:04:20.159Z,23.20
2018-03-27T00:05:20.196Z,24.50
2018-03-27T00:06:20.193Z,25.00
2018-03-27T00:07:20.210Z,25.70
2018-03-27T00:08:20.226Z,25.90
2018-03-27T00:09:20.240Z,26.10
2018-03-27T00:10:20.266Z,27.10
2018-03-27T00:11:20.275Z,27.00
2018-03-27T00:12:20.295Z,27.00
2018-03-27T00:13:20.315Z,27.30
2018-03-27T00:14:20.333Z,27.50
2018-03-27T00:15:20.348Z,28.20
2018-03-27T00:16:20.373Z,27.40
2018-03-27T00:17:20.382Z,28.90
2018-03-27T00:18:20.400Z,27.20
2018-03-27T00:19:20.423Z,28.40
2018-03-27T00:20:20.438Z,28.80
2018-03-27T00:21:20.453Z,28.80
2018-03-27T00:22:20.474Z,28.90
2018-03-27T00:23:20.484Z,29.50
2018-03-27T00:24:20.504Z,29.60
2018-03-27T00:25:20.524Z,28.40
2018-03-27T00:26:20.540Z,28.70
2018-03-27T00:27:20.560Z,29.20
2018-03-27T00:28:20.576Z,31.20
2018-03-27T00:29:20.588Z,29.10
2018-03-27T00:30:20.611Z,29.50
2018-03-27T00:31:20.631Z,29.60
2018-03-27T00:32:20.641Z,28.70
2018-03-27T00:33:20.665Z,29.50
2018-03-27T00:34:20.684Z,29.30
2018-03-27T00:35:20.700Z,30.50
2018-03-27T00:36:20.716Z,31.40
2018-03-27T00:37:20.732Z,32.50
2018-03-27T00:38:20.751Z,30.00
2018-03-27T00:39:20.766Z,30.40
2018-03-27T00:40:20.787Z,30.20
2018-03-27T00:41:20.800Z,31.10
2018-03-27T00:42:20.821Z,30.90
2018-03-27T00:43:20.836Z,30.50
2018-03-27T00:44:20.857Z,27.90
2018-03-27T00:45:20.876Z,27.20
2018-03-27T00:46:20.888Z,29.70
2018-03-27T00:47:20.903Z,31.00
2018-03-27T00:48:20.928Z,29.10
2018-03-27T00:49:20.938Z,30.20
2018-03-27T00:50:20.962Z,30.70
2018-03-27T00:51:20.976Z,32.00
2018-03-27T00:52:20.995Z,31.60
2018-03-27T00:53:21.011Z,31.90
2018-03-27T00:54:21.028Z,30.90
2018-03-27T00:55:21.050Z,31.40
2018-03-27T00:56:21.063Z,32.00
2018-03-27T00:57:21.084Z,33.50
2018-03-27T00:58:21.098Z,32.80
2018-03-27T00:59:21.118Z,31.50
2018-03-27T01:00:21.140Z,32.20
2018-03-27T01:01:21.147Z,31.70
2018-03-27T01:02:21.165Z,31.30
2018-03-27T01:03:21.192Z,30.70
2018-03-27T01:04:21.203Z,32.40
2018-03-27T01:05:21.227Z,32.80
2018-03-27T01:06:21.238Z,31.90
2018-03-27T01:07:21.286Z,32.10
2018-03-27T01:08:21.279Z,33.70
2018-03-27T01:09:21.287Z,32.50
2018-03-27T01:10:21.312Z,31.90
2018-03-27T01:11:21.327Z,32.80
2018-03-27T01:12:21.341Z,34.00
2018-03-27T01:13:21.368Z,31.20
2018-03-27T01:14:21.376Z,31.70
2018-03-27T01:15:21.407Z,30.70
2018-03-27T01:16:21.412Z,32.40
2018-03-27T01:17:21.436Z,31.10
2018-03-27T01:18:21.449Z,32.10
2018-03-27T01:19:21.469Z,31.10
2018-03-27T01:20:21.489Z,31.90
2018-03-27T01:21:21.498Z,31.50
2018-03-27T01:22:21.515Z,31.50
2018-03-27T01:23:21.542Z,31.80
2018-03-27T01:24:21.558Z,30.80
2018-03-27T01:25:21.570Z,33.30
2018-03-27T01:26:21.594Z,32.40
2018-03-27T01:27:21.605Z,32.20
2018-03-27T01:28:21.624Z,31.00
2018-03-27T01:29:21.643Z,31.80
2018-03-27T01:30:21.664Z,30.60
2018-03-27T01:31:21.674Z,30.80
2018-03-27T01:32:21.699Z,30.80
2018-03-27T01:33:21.714Z,31.70
2018-03-27T01:34:21.746Z,31.20
2018-03-27T01:35:21.754Z,31.20
2018-03-27T01:36:21.768Z,31.50
2018-03-27T01:37:21.782Z,31.40
2018-03-27T01:38:21.800Z,32.80
2018-03-27T01:39:21.820Z,31.50
2018-03-27T01:40:21.836Z,31.80
2018-03-27T01:41:21.854Z,31.60
2018-03-27T01:42:21.873Z,31.90
2018-03-27T01:43:21.888Z,32.70
2018-03-27T01:44:21.909Z,34.00
2018-03-27T01:45:21.923Z,32.80
2018-03-27T01:46:21.943Z,33.40
2018-03-27T01:47:21.959Z,33.30
2018-03-27T01:48:21.980Z,34.30
2018-03-27T01:49:21.994Z,32.80
2018-03-27T01:50:22.017Z,33.50
2018-03-27T01:51:22.033Z,33.30
2018-03-27T01:52:22.047Z,32.20
2018-03-27T01:53:22.068Z,32.20
2018-03-27T01:54:22.090Z,34.70
2018-03-27T01:55:22.100Z,33.70
2018-03-27T01:56:22.122Z,32.70
2018-03-27T01:57:22.140Z,32.70
2018-03-27T01:58:22.154Z,33.00
2018-03-27T01:59:22.174Z,33.50
2018-03-27T02:00:22.189Z,34.60
2018-03-27T02:01:22.210Z,35.20
2018-03-27T02:02:22.229Z,33.80
2018-03-27T02:03:22.240Z,34.50
2018-03-27T02:04:22.266Z,34.30
2018-03-27T02:05:22.276Z,33.80
2018-03-27T02:06:22.293Z,35.10
2018-03-27T02:07:22.319Z,33.60
2018-03-27T02:08:22.329Z,34.20
2018-03-27T02:09:22.357Z,35.00
2018-03-27T02:10:22.367Z,32.30
2018-03-27T02:11:22.387Z,34.80
2018-03-27T02:12:22.408Z,34.00
2018-03-27T02:13:22.417Z,32.80
2018-03-27T02:14:22.444Z,35.10
2018-03-27T02:15:22.456Z,34.90
2018-03-27T02:16:22.471Z,35.10
2018-03-27T02:17:22.496Z,35.20
2018-03-27T02:18:22.507Z,35.40
2018-03-27T02:19:22.532Z,34.40
2018-03-27T02:20:22.549Z,35.60
2018-03-27T02:21:22.563Z,35.30
2018-03-27T02:22:22.585Z,35.00
2018-03-27T02:23:22.595Z,35.60
2018-03-27T02:24:22.616Z,35.70
2018-03-27T02:25:22.636Z,35.20
2018-03-27T02:26:22.653Z,34.20
2018-03-27T02:27:22.670Z,35.90
2018-03-27T02:28:22.684Z,34.50
2018-03-27T02:29:22.716Z,35.90
2018-03-27T02:30:22.726Z,34.20
2018-03-27T02:31:22.743Z,35.30
2018-03-27T02:32:22.764Z,34.40
2018-03-27T02:33:22.773Z,34.70
2018-03-27T02:34:22.798Z,35.50
2018-03-27T02:35:22.809Z,35.90
2018-03-27T02:36:22.828Z,36.30
2018-03-27T02:37:22.843Z,36.70
2018-03-27T02:38:22.863Z,38.00
2018-03-27T02:39:22.885Z,36.80
2018-03-27T02:40:22.898Z,36.90
2018-03-27T02:41:22.923Z,38.10
2018-03-27T02:42:22.938Z,37.20
2018-03-27T02:43:22.956Z,37.40
2018-03-27T02:44:22.972Z,37.40
2018-03-27T02:45:22.993Z,36.60
2018-03-27T02:46:23.012Z,37.00
2018-03-27T02:47:23.025Z,37.20
2018-03-27T02:48:23.046Z,37.70
2018-03-27T02:49:23.060Z,37.60
2018-03-27T02:50:23.088Z,37.10
2018-03-27T02:51:23.096Z,38.30
2018-03-27T02:52:23.116Z,36.60
2018-03-27T02:53:23.135Z,39.00
2018-03-27T02:54:23.151Z,37.90
2018-03-27T02:55:23.166Z,41.20
2018-03-27T02:56:23.191Z,39.70
2018-03-27T02:57:23.199Z,39.40
2018-03-27T02:58:23.223Z,37.10
2018-03-27T02:59:23.241Z,38.00
2018-03-27T03:00:23.255Z,37.50
2018-03-27T03:01:23.280Z,38.50
2018-03-27T03:02:23.293Z,39.50
2018-03-27T03:03:23.315Z,38.20
2018-03-27T03:04:23.333Z,37.70
2018-03-27T03:05:23.348Z,39.00
2018-03-27T03:06:23.369Z,38.80
2018-03-27T03:07:23.378Z,39.90
2018-03-27T03:08:23.405Z,40.80
2018-03-27T03:09:23.416Z,38.30
2018-03-27T03:10:23.431Z,39.10
2018-03-27T03:11:23.452Z,38.20
2018-03-27T03:12:23.468Z,40.10
2018-03-27T03:13:23.489Z,39.20
2018-03-27T03:14:23.505Z,39.30
2018-03-27T03:15:23.526Z,38.50
2018-03-27T03:16:23.547Z,38.50
2018-03-27T03:17:23.557Z,37.50
2018-03-27T03:18:23.578Z,36.80
2018-03-27T03:19:23.627Z,39.00
2018-03-27T03:20:23.610Z,37.80
2018-03-27T03:21:23.636Z,36.90
2018-03-27T03:22:23.649Z,38.80
2018-03-27T03:23:23.664Z,39.50
2018-03-27T03:24:23.680Z,38.60
2018-03-27T03:25:23.698Z,38.90
2018-03-27T03:26:23.718Z,38.90
2018-03-27T03:27:23.732Z,39.90
2018-03-27T03:28:23.752Z,38.10
2018-03-27T03:29:23.772Z,38.70
2018-03-27T03:30:23.792Z,38.00
2018-03-27T03:31:23.855Z,37.90
2018-03-27T03:32:23.820Z,40.20
2018-03-27T03:33:23.844Z,41.00
2018-03-27T03:34:23.858Z,39.90
2018-03-27T03:35:23.878Z,38.40
2018-03-27T03:36:23.898Z,38.00
2018-03-27T03:37:23.906Z,38.40
2018-03-27T03:38:23.927Z,37.40
2018-03-27T03:39:23.950Z,40.20
2018-03-27T03:40:23.962Z,39.10
2018-03-27T03:41:23.975Z,39.10
2018-03-27T03:42:23.994Z,40.20
2018-03-27T03:43:24.014Z,39.50
2018-03-27T03:44:24.028Z,39.30
2018-03-27T03:45:24.053Z,37.60
2018-03-27T03:46:24.064Z,39.00
2018-03-27T03:47:24.085Z,37.20
2018-03-27T03:48:24.100Z,39.50
2018-03-27T03:49:24.120Z,39.80
2018-03-27T03:50:24.138Z,39.30
2018-03-27T03:51:24.152Z,39.10
2018-03-27T03:52:24.173Z,39.40
2018-03-27T03:53:24.187Z,37.70
2018-03-27T03:54:24.207Z,36.80
2018-03-27T03:55:24.221Z,38.20
2018-03-27T03:56:24.237Z,36.50
2018-03-27T03:57:24.255Z,38.80
2018-03-27T03:58:24.279Z,38.30
2018-03-27T03:59:24.294Z,38.90
2018-03-27T04:00:24.363Z,38.20
2018-03-27T04:01:24.328Z,37.50
2018-03-27T04:02:24.345Z,38.30
2018-03-27T04:03:24.365Z,38.00
2018-03-27T04:04:24.374Z,39.60
2018-03-27T04:05:24.400Z,37.30
2018-03-27T04:06:24.411Z,37.90
2018-03-27T04:07:24.432Z,36.40
2018-03-27T04:08:24.453Z,37.00
2018-03-27T04:09:24.461Z,37.90
2018-03-27T04:10:24.483Z,38.30
2018-03-27T04:11:24.509Z,39.60
2018-03-27T04:12:24.516Z,40.00
2018-03-27T04:13:24.535Z,41.40
2018-03-27T04:14:24.547Z,40.70
2018-03-27T04:15:24.567Z,42.30
2018-03-27T04:16:24.587Z,41.90
2018-03-27T04:17:24.606Z,42.10
2018-03-27T04:18:24.618Z,42.90
2018-03-27T04:19:24.639Z,41.60
2018-03-27T04:20:24.659Z,40.20
2018-03-27T04:21:24.666Z,40.40
2018-03-27T04:22:24.695Z,41.90
2018-03-27T04:23:24.705Z,40.90
2018-03-27T04:24:24.720Z,42.80
2018-03-27T04:25:24.743Z,40.30
2018-03-27T04:26:24.758Z,40.00
2018-03-27T04:27:24.772Z,39.80
2018-03-27T04:28:24.792Z,41.30
2018-03-27T04:29:24.805Z,41.20
2018-03-27T04:30:24.828Z,39.80
2018-03-27T04:31:24.843Z,39.90
2018-03-27T04:32:24.857Z,40.30
2018-03-27T04:33:24.871Z,41.30
2018-03-27T04:34:24.896Z,37.60
2018-03-27T04:35:24.905Z,39.70
2018-03-27T04:36:24.930Z,38.50
2018-03-27T04:37:24.939Z,40.50
2018-03-27T04:38:24.955Z,40.20
2018-03-27T04:39:24.986Z,39.90
2018-03-27T04:40:24.990Z,40.50
2018-03-27T04:41:25.016Z,40.10
2018-03-27T04:42:25.030Z,39.10
2018-03-27T04:43:25.044Z,37.80
2018-03-27T04:44:25.063Z,40.80
2018-03-27T04:45:25.078Z,40.20
2018-03-27T04:46:25.094Z,40.30
2018-03-27T04:47:25.117Z,40.70
2018-03-27T04:48:25.131Z,40.30
2018-03-27T04:49:25.148Z,41.70
2018-03-27T04:50:25.159Z,42.90
2018-03-27T04:51:25.184Z,42.00
2018-03-27T04:52:25.204Z,43.30
2018-03-27T04:53:25.214Z,42.10
2018-03-27T04:54:25.235Z,41.80
2018-03-27T04:55:25.244Z,41.90
2018-03-27T04:56:25.265Z,41.90
2018-03-27T04:57:25.284Z,42.50
2018-03-27T04:58:25.301Z,42.00
2018-03-27T04:59:25.318Z,40.50
2018-03-27T05:00:25.338Z,38.20
2018-03-27T05:01:25.345Z,40.50
2018-03-27T05:02:25.397Z,41.80
2018-03-27T05:03:25.449Z,39.90
2018-03-27T05:04:25.397Z,43.40
2018-03-27T05:05:25.421Z,38.60
2018-03-27T05:06:25.461Z,41.10
2018-03-27T05:07:25.454Z,41.60
2018-03-27T05:08:25.472Z,41.80
2018-03-27T05:09:25.556Z,40.50
2018-03-27T05:10:25.504Z,42.60
2018-03-27T05:11:25.520Z,42.80
2018-03-27T05:12:25.532Z,42.30
2018-03-27T05:13:25.557Z,42.50
2018-03-27T05:14:25.605Z,43.20
2018-03-27T05:15:25.584Z,44.30
2018-03-27T05:16:25.608Z,40.80
2018-03-27T05:17:25.620Z,42.60
2018-03-27T05:18:25.649Z,42.30
2018-03-27T05:19:25.726Z,43.50
2018-03-27T05:20:25.670Z,42.70
2018-03-27T05:21:25.690Z,41.30
2018-03-27T05:22:25.705Z,43.60
2018-03-27T05:23:25.726Z,42.50
2018-03-27T05:24:25.735Z,44.10
2018-03-27T05:25:25.759Z,44.00
2018-03-27T05:26:25.792Z,41.40
2018-03-27T05:27:25.786Z,42.90
2018-03-27T05:28:25.810Z,42.60
2018-03-27T05:29:25.822Z,42.20
2018-03-27T05:30:25.843Z,43.50
2018-03-27T05:31:25.852Z,42.60
2018-03-27T05:32:25.873Z,39.70
2018-03-27T05:33:25.891Z,41.40
2018-03-27T05:34:25.908Z,40.20
2018-03-27T05:35:25.928Z,41.30
2018-03-27T05:36:25.945Z,41.60
2018-03-27T05:37:25.964Z,39.80
2018-03-27T05:38:25.979Z,40.70
2018-03-27T05:39:25.986Z,41.30
2018-03-27T05:40:26.012Z,39.20
2018-03-27T05:41:26.020Z,40.00
2018-03-27T05:42:26.036Z,40.60
2018-03-27T05:43:26.061Z,41.30
2018-03-27T05:44:26.071Z,38.70
2018-03-27T05:45:26.097Z,40.80
2018-03-27T05:46:26.103Z,41.30
2018-03-27T05:47:26.132Z,41.40
2018-03-27T05:48:26.148Z,39.90
2018-03-27T05:49:26.162Z,40.20
2018-03-27T05:50:26.171Z,40.60
2018-03-27T05:51:26.193Z,40.00
2018-03-27T05:52:26.207Z,39.20
2018-03-27T05:53:26.225Z,40.00
2018-03-27T05:54:26.237Z,40.00
2018-03-27T05:55:26.262Z,39.90
2018-03-27T05:56:26.278Z,41.20
2018-03-27T05:57:26.290Z,40.20
2018-03-27T05:58:26.312Z,41.50
2018-03-27T05:59:26.322Z,41.20
2018-03-27T06:00:26.341Z,42.30
2018-03-27T06:01:26.363Z,41.90
2018-03-27T06:02:26.372Z,39.20
2018-03-27T06:03:26.395Z,41.40
2018-03-27T06:04:26.410Z,41.50
2018-03-27T06:05:26.426Z,42.70
2018-03-27T06:06:26.438Z,41.70
2018-03-27T06:07:26.462Z,40.80
2018-03-27T06:08:26.476Z,43.00
2018-03-27T06:09:26.491Z,40.30
2018-03-27T06:10:26.511Z,41.30
2018-03-27T06:11:26.527Z,39.30
2018-03-27T06:12:26.546Z,40.60
2018-03-27T06:13:26.554Z,43.10
2018-03-27T06:14:26.581Z,39.60
2018-03-27T06:15:26.594Z,38.50
2018-03-27T06:16:26.612Z,38.50
2018-03-27T06:17:26.629Z,39.90
2018-03-27T06:18:26.646Z,38.00
2018-03-27T06:19:26.662Z,39.40
2018-03-27T06:20:26.673Z,38.60
2018-03-27T06:21:26.696Z,41.60
2018-03-27T06:22:26.713Z,41.10
2018-03-27T06:23:26.728Z,41.20
2018-03-27T06:24:26.752Z,39.70
2018-03-27T06:25:26.761Z,39.40
2018-03-27T06:26:26.777Z,38.30
2018-03-27T06:27:26.819Z,39.80
2018-03-27T06:28:26.806Z,38.20
2018-03-27T06:29:26.831Z,38.20
2018-03-27T06:30:26.855Z,36.10
2018-03-27T06:31:26.856Z,35.20
2018-03-27T06:32:26.881Z,36.20
2018-03-27T06:33:26.893Z,35.80
2018-03-27T06:34:26.916Z,36.50
2018-03-27T06:35:26.924Z,35.70
2018-03-27T06:36:26.949Z,33.80
2018-03-27T06:37:26.963Z,37.00
2018-03-27T06:38:26.976Z,34.50
2018-03-27T06:39:26.998Z,33.30
2018-03-27T06:40:27.017Z,35.90
2018-03-27T06:41:27.034Z,35.80
2018-03-27T06:42:27.056Z,35.30
2018-03-27T06:43:27.063Z,34.60
2018-03-27T06:44:27.086Z,38.90
2018-03-27T06:45:27.104Z,35.20
2018-03-27T06:46:27.116Z,36.80
2018-03-27T06:47:27.142Z,36.40
2018-03-27T06:48:27.158Z,37.90
2018-03-27T06:49:27.172Z,38.00
2018-03-27T06:50:27.186Z,38.10
2018-03-27T06:51:27.215Z,39.20
2018-03-27T06:52:27.223Z,40.20
2018-03-27T06:53:27.240Z,36.60
2018-03-27T06:54:27.260Z,38.50
2018-03-27T06:55:27.275Z,39.00
2018-03-27T06:56:27.347Z,37.60
2018-03-27T06:57:27.315Z,38.40
2018-03-27T06:58:27.328Z,38.20
2018-03-27T06:59:27.353Z,39.20
2018-03-27T07:00:27.375Z,37.60
2018-03-27T07:01:27.384Z,43.00
2018-03-27T07:02:27.408Z,38.50
2018-03-27T07:03:27.453Z,38.20
2018-03-27T07:04:27.464Z,37.30
2018-03-27T07:05:27.517Z,36.00
2018-03-27T07:06:27.478Z,34.80
2018-03-27T07:07:27.489Z,36.00
2018-03-27T07:08:27.517Z,35.00
2018-03-27T07:09:27.534Z,34.40
2018-03-27T07:10:27.553Z,33.30
2018-03-27T07:11:27.571Z,34.70
2018-03-27T07:12:27.588Z,33.00
2018-03-27T07:13:27.603Z,32.70
2018-03-27T07:14:27.634Z,34.80
2018-03-27T07:15:27.637Z,30.50
2018-03-27T07:16:27.663Z,33.10
2018-03-27T07:17:27.681Z,34.80
2018-03-27T07:18:27.694Z,36.80
2018-03-27T07:19:27.724Z,34.70
2018-03-27T07:20:27.781Z,37.90
2018-03-27T07:21:27.755Z,35.50
2018-03-27T07:22:27.778Z,36.40
2018-03-27T07:23:27.801Z,30.90
2018-03-27T07:24:27.811Z,38.00
2018-03-27T07:25:27.838Z,39.60
2018-03-27T07:26:27.853Z,39.70
2018-03-27T07:27:27.875Z,44.00
2018-03-27T07:28:27.903Z,48.90
2018-03-27T07:29:27.914Z,43.20
2018-03-27T07:30:27.929Z,45.70
2018-03-27T07:31:27.957Z,42.90
2018-03-27T07:32:28.026Z,50.00
2018-03-27T07:33:27.996Z,44.10
2018-03-27T07:34:28.015Z,47.00
2018-03-27T07:35:28.027Z,46.40
2018-03-27T07:36:28.055Z,53.90
2018-03-27T07:37:28.069Z,52.80
2018-03-27T07:38:28.094Z,55.20
2018-03-27T07:39:28.105Z,46.50
2018-03-27T07:40:28.154Z,40.10
2018-03-27T07:41:28.150Z,54.50
2018-03-27T07:42:28.167Z,56.40
2018-03-27T07:43:28.189Z,67.80
2018-03-27T07:44:28.206Z,49.50
2018-03-27T07:45:28.228Z,56.50
2018-03-27T07:46:28.246Z,51.60
2018-03-27T07:47:28.261Z,49.20
2018-03-27T07:48:28.280Z,51.20
2018-03-27T07:49:28.335Z,53.60
2018-03-27T07:50:28.315Z,50.00
2018-03-27T07:51:28.344Z,50.20
2018-03-27T07:52:28.358Z,48.60
2018-03-27T07:53:28.375Z,46.90
2018-03-27T07:54:28.397Z,51.80
2018-03-27T07:55:28.413Z,54.30
2018-03-27T07:56:28.434Z,51.50
2018-03-27T07:57:28.705Z,54.00
2018-03-27T07:58:28.469Z,49.40
2018-03-27T07:59:28.485Z,56.10
2018-03-27T08:00:28.515Z,58.10
2018-03-27T08:01:28.523Z,58.70
2018-03-27T08:02:28.543Z,58.40
2018-03-27T08:03:28.569Z,62.90
2018-03-27T08:04:28.584Z,60.60
2018-03-27T08:05:28.600Z,56.80
2018-03-27T08:06:28.623Z,52.00
2018-03-27T08:07:28.633Z,55.00
2018-03-27T08:08:28.655Z,58.00
2018-03-27T08:09:28.676Z,52.90
2018-03-27T08:10:28.698Z,55.50
2018-03-27T08:11:28.708Z,50.50
2018-03-27T08:12:28.732Z,45.80
2018-03-27T08:13:28.742Z,43.30
2018-03-27T08:14:28.763Z,38.10
2018-03-27T08:15:28.785Z,39.00
2018-03-27T08:16:28.803Z,39.10
2018-03-27T08:17:28.828Z,40.70
2018-03-27T08:18:28.889Z,40.40
2018-03-27T08:19:28.859Z,38.80
2018-03-27T08:20:28.885Z,39.20
2018-03-27T08:21:28.902Z,39.30
2018-03-27T08:22:28.916Z,40.90
2018-03-27T08:23:28.943Z,44.90
2018-03-27T08:24:28.965Z,41.20
2018-03-27T08:25:28.989Z,41.60
2018-03-27T08:26:28.998Z,41.60
2018-03-27T08:27:29.025Z,42.60
2018-03-27T08:28:29.031Z,42.80
2018-03-27T08:29:29.057Z,41.80
2018-03-27T08:30:29.072Z,43.80
2018-03-27T08:31:29.088Z,43.80
2018-03-27T08:32:29.117Z,43.70
2018-03-27T08:33:29.137Z,44.00
2018-03-27T08:34:29.144Z,43.00
2018-03-27T08:35:29.174Z,45.30
2018-03-27T08:36:29.238Z,42.70
2018-03-27T08:37:29.211Z,42.40
2018-03-27T08:38:29.227Z,42.00
2018-03-27T08:39:29.239Z,38.40
2018-03-27T08:40:29.266Z,41.90
2018-03-27T08:41:29.275Z,44.50
2018-03-27T08:42:29.304Z,44.40
2018-03-27T08:43:29.315Z,44.10
2018-03-27T08:44:29.342Z,46.40
2018-03-27T08:45:29.357Z,44.50
2018-03-27T08:46:29.370Z,44.40
2018-03-27T08:47:29.391Z,45.40
2018-03-27T08:48:29.416Z,45.40
2018-03-27T08:49:29.434Z,43.00
2018-03-27T08:50:29.450Z,43.10
2018-03-27T08:51:29.467Z,42.40
2018-03-27T08:52:29.484Z,44.40
2018-03-27T08:53:29.514Z,43.10
2018-03-27T08:54:29.523Z,43.40
2018-03-27T08:55:29.545Z,45.20
2018-03-27T08:56:29.567Z,45.10
2018-03-27T08:57:29.580Z,46.30
2018-03-27T08:58:29.601Z,47.10
2018-03-27T08:59:29.623Z,47.70
2018-03-27T09:00:29.638Z,46.30
2018-03-27T09:01:29.661Z,45.00
2018-03-27T09:02:29.674Z,44.90
2018-03-27T09:03:29.705Z,46.20
2018-03-27T09:04:29.717Z,45.10
2018-03-27T09:05:29.745Z,40.30
2018-03-27T09:06:29.759Z,40.80
2018-03-27T09:07:29.784Z,44.20
2018-03-27T09:08:29.802Z,44.90
2018-03-27T09:09:29.826Z,47.20
2018-03-27T09:10:29.848Z,45.60
2018-03-27T09:11:29.867Z,47.70
2018-03-27T09:12:29.894Z,46.50
2018-03-27T09:13:29.912Z,47.70
2018-03-27T09:14:29.932Z,47.10
2018-03-27T09:15:29.964Z,47.30
2018-03-27T09:16:29.978Z,48.40
2018-03-27T09:17:30.005Z,48.90
2018-03-27T09:18:30.027Z,48.70
2018-03-27T09:19:30.048Z,49.20
2018-03-27T09:20:30.076Z,49.40
2018-03-27T09:21:30.101Z,50.90
2018-03-27T09:22:30.124Z,50.50
2018-03-27T09:23:30.153Z,51.20
2018-03-27T09:24:30.172Z,49.50
2018-03-27T09:25:30.202Z,50.40
2018-03-27T09:26:30.226Z,49.90
2018-03-27T09:27:30.246Z,51.00
2018-03-27T09:28:30.278Z,50.70
2018-03-27T09:29:30.292Z,50.90
2018-03-27T09:30:30.329Z,51.10
2018-03-27T09:31:30.344Z,51.00
2018-03-27T09:32:30.379Z,51.10
2018-03-27T09:33:30.395Z,47.20
2018-03-27T09:34:30.422Z,52.40
2018-03-27T09:35:30.456Z,51.50
2018-03-27T09:36:30.473Z,51.20
2018-03-27T09:37:30.512Z,51.20
2018-03-27T09:38:30.534Z,52.80
2018-03-27T09:39:30.551Z,52.90
2018-03-27T09:40:30.581Z,54.00
2018-03-27T09:41:30.610Z,55.30
2018-03-27T09:42:30.630Z,54.50
2018-03-27T09:43:30.665Z,58.90
2018-03-27T09:44:30.694Z,55.40
2018-03-27T09:45:30.733Z,60.70
2018-03-27T09:46:30.745Z,60.20
2018-03-27T09:47:30.773Z,59.20
2018-03-27T09:48:30.940Z,59.90
2018-03-27T09:49:30.829Z,60.60
2018-03-27T09:50:30.856Z,62.30
2018-03-27T09:51:30.875Z,62.90
2018-03-27T09:52:30.910Z,62.20
2018-03-27T09:53:30.928Z,63.80
2018-03-27T09:54:30.955Z,63.40
2018-03-27T09:55:30.992Z,62.10
2018-03-27T09:56:31.020Z,62.50
2018-03-27T09:57:31.044Z,61.20
2018-03-27T09:58:31.089Z,62.00
2018-03-27T09:59:31.094Z,63.60
2018-03-27T10:00:31.123Z,62.10
2018-03-27T10:01:31.153Z,61.50
2018-03-27T10:02:31.180Z,62.50
2018-03-27T10:03:31.211Z,63.20
2018-03-27T10:04:31.236Z,62.00
2018-03-27T10:05:31.260Z,58.40
2018-03-27T10:06:31.296Z,57.70
2018-03-27T10:07:31.320Z,60.70
2018-03-27T10:08:31.344Z,62.70
2018-03-27T10:09:31.380Z,61.40
2018-03-27T10:10:31.403Z,61.10
2018-03-27T10:11:31.436Z,57.30
2018-03-27T10:12:31.465Z,59.70
2018-03-27T10:13:31.484Z,59.40
2018-03-27T10:14:31.518Z,56.70
2018-03-27T10:15:31.544Z,56.90
2018-03-27T10:16:31.569Z,58.10
2018-03-27T10:17:31.606Z,55.10
2018-03-27T10:18:31.625Z,56.50
2018-03-27T10:19:31.662Z,54.60
2018-03-27T10:20:31.685Z,45.60
2018-03-27T10:21:31.713Z,43.70
2018-03-27T10:22:31.743Z,40.60
2018-03-27T10:23:31.767Z,41.90
2018-03-27T10:24:31.800Z,41.80
2018-03-27T10:25:31.830Z,43.70
2018-03-27T10:26:31.858Z,41.80
2018-03-27T10:27:31.883Z,41.30
2018-03-27T10:28:31.916Z,38.90
2018-03-27T10:29:31.940Z,41.70
2018-03-27T10:30:31.968Z,41.80
2018-03-27T10:31:32.000Z,41.10
2018-03-27T10:32:32.026Z,34.30
2018-03-27T10:33:32.096Z,31.60
2018-03-27T10:34:32.088Z,34.80
2018-03-27T10:35:32.109Z,33.00
2018-03-27T10:36:32.146Z,32.80
2018-03-27T10:37:32.168Z,33.00
2018-03-27T10:38:32.209Z,35.10
2018-03-27T10:39:32.233Z,36.00
2018-03-27T10:40:32.254Z,31.90
2018-03-27T10:41:32.293Z,31.40
2018-03-27T10:42:32.314Z,30.40
2018-03-27T10:43:32.346Z,28.60
2018-03-27T10:44:32.373Z,29.00
2018-03-27T10:45:32.402Z,23.40
2018-03-27T10:46:32.436Z,24.20
2018-03-27T10:47:32.455Z,26.10
2018-03-27T10:48:32.487Z,26.00
2018-03-27T10:49:32.511Z,25.80
2018-03-27T10:50:32.537Z,28.90
2018-03-27T10:51:32.572Z,28.40
2018-03-27T10:52:32.592Z,28.00
2018-03-27T10:53:32.629Z,28.90
2018-03-27T10:54:32.655Z,26.70
2018-03-27T10:55:32.675Z,24.70
2018-03-27T10:56:32.711Z,26.50
2018-03-27T10:57:32.728Z,25.30
2018-03-27T10:58:32.761Z,21.40
2018-03-27T10:59:32.783Z,23.40
2018-03-27T11:00:32.813Z,23.60
2018-03-27T11:01:32.834Z,22.60
2018-03-27T11:02:32.861Z,20.50
2018-03-27T11:03:32.893Z,19.00
2018-03-27T11:04:32.917Z,19.80
2018-03-27T11:05:32.940Z,19.90
2018-03-27T11:06:32.969Z,19.90
2018-03-27T11:07:32.986Z,19.90
2018-03-27T11:08:33.019Z,18.70
2018-03-27T11:09:33.041Z,18.70
2018-03-27T11:10:33.061Z,18.20
2018-03-27T11:11:33.087Z,19.70
2018-03-27T11:12:33.118Z,18.20
2018-03-27T11:13:33.136Z,18.90
2018-03-27T11:14:33.160Z,16.00
2018-03-27T11:15:33.188Z,15.60
2018-03-27T11:16:33.209Z,16.20
2018-03-27T11:17:33.241Z,16.20
2018-03-27T11:18:33.260Z,16.00
2018-03-27T11:19:33.281Z,15.40
2018-03-27T11:20:33.308Z,14.70
2018-03-27T11:21:33.329Z,15.50
2018-03-27T11:22:33.353Z,15.60
2018-03-27T11:23:33.383Z,14.70
2018-03-27T11:24:33.768Z,15.50
2018-03-27T11:25:33.431Z,15.20
2018-03-27T11:26:33.453Z,14.70
2018-03-27T11:27:33.477Z,12.80
2018-03-27T11:28:33.502Z,14.90
2018-03-27T11:29:33.516Z,15.10
2018-03-27T11:30:33.547Z,15.50
2018-03-27T11:31:33.567Z,14.40
2018-03-27T11:32:33.593Z,14.70
2018-03-27T11:33:33.611Z,14.80
2018-03-27T11:34:33.636Z,15.70
2018-03-27T11:35:33.664Z,15.10
2018-03-27T11:36:33.682Z,14.10
2018-03-27T11:37:33.707Z,15.60
2018-03-27T11:38:33.734Z,15.40
2018-03-27T11:39:33.749Z,14.60
2018-03-27T11:40:33.782Z,14.00
2018-03-27T11:41:33.801Z,14.60
2018-03-27T11:42:33.819Z,13.80
2018-03-27T11:43:33.843Z,12.90
2018-03-27T11:44:33.874Z,14.90
2018-03-27T11:45:33.889Z,13.40
2018-03-27T11:46:33.912Z,13.50
2018-03-27T11:47:33.938Z,13.70
2018-03-27T11:48:33.964Z,13.60
2018-03-27T11:49:33.978Z,12.00
2018-03-27T11:50:34.032Z,13.30
2018-03-27T11:51:34.026Z,12.90
2018-03-27T11:52:34.048Z,12.10
2018-03-27T11:53:34.080Z,11.50
2018-03-27T11:54:34.175Z,11.60
2018-03-27T11:55:34.121Z,12.30
2018-03-27T11:56:34.147Z,11.60
2018-03-27T11:57:34.173Z,10.80
2018-03-27T11:58:34.191Z,11.60
2018-03-27T11:59:34.212Z,11.90
2018-03-27T12:00:34.244Z,11.50
2018-03-27T12:01:34.294Z,11.40
2018-03-27T12:02:34.284Z,10.20
2018-03-27T12:03:34.319Z,11.30
2018-03-27T12:04:34.335Z,11.20
2018-03-27T12:05:34.364Z,11.50
2018-03-27T12:06:34.388Z,12.10
2018-03-27T12:07:34.405Z,11.70
2018-03-27T12:08:34.437Z,10.70
2018-03-27T12:09:34.453Z,11.00
2018-03-27T12:10:34.480Z,9.80
2018-03-27T12:11:34.508Z,10.60
2018-03-27T12:12:34.535Z,10.90
2018-03-27T12:13:34.563Z,10.80
2018-03-27T12:14:34.577Z,10.80
2018-03-27T12:15:34.605Z,10.30
2018-03-27T12:16:34.632Z,10.30
2018-03-27T12:17:34.654Z,9.10
2018-03-27T12:18:34.685Z,9.60
2018-03-27T12:19:34.701Z,9.40
2018-03-27T12:20:34.728Z,10.30
2018-03-27T12:21:34.755Z,10.40
2018-03-27T12:22:34.774Z,11.00
2018-03-27T12:23:34.807Z,11.00
2018-03-27T12:24:34.828Z,10.50
2018-03-27T12:25:34.849Z,10.90
2018-03-27T12:26:34.875Z,10.80
2018-03-27T12:27:34.901Z,10.40
2018-03-27T12:28:34.922Z,10.80
2018-03-27T12:29:34.949Z,10.50
2018-03-27T12:30:34.971Z,10.70
2018-03-27T12:31:35.001Z,10.40
2018-03-27T12:32:35.018Z,10.80
2018-03-27T12:33:35.033Z,10.60
2018-03-27T12:34:35.057Z,10.80
2018-03-27T12:35:35.086Z,11.20
2018-03-27T12:36:35.102Z,11.30
2018-03-27T12:37:35.364Z,10.50
2018-03-27T12:38:35.156Z,10.60
2018-03-27T12:39:35.173Z,10.50
2018-03-27T12:40:35.201Z,10.80
2018-03-27T12:41:35.216Z,10.30
2018-03-27T12:42:35.246Z,10.20
2018-03-27T12:43:35.272Z,10.30
2018-03-27T12:44:35.292Z,11.40
2018-03-27T12:45:35.308Z,10.40
2018-03-27T12:46:35.332Z,10.70
2018-03-27T12:47:35.358Z,9.30
2018-03-27T12:48:35.372Z,8.70
2018-03-27T12:49:35.393Z,8.50
2018-03-27T12:50:35.422Z,9.70
2018-03-27T12:51:35.445Z,8.80
2018-03-27T12:52:35.465Z,9.90
2018-03-27T12:53:35.490Z,10.20